CheckWX is a tool to help pilots better visualize weather data.  It is not intended as a substitute for an official pre-flight weather briefing.

05:41:32 UTC

KUUU METAR
Newport State Airport
Newport, Rhode Island, USA
Current

49 mins ago

KUUU 180453Z AUTO 04016G21KT 10SM OVC029 07/01 A3002 RMK AO2 SLP165 T00670006 400671033
Observed
Nov-18 @ 04:53 UTC
Wind
  • 040° at 16 KTS
  • Gusting to 21 KTS
Visibility
10 SM
Flight Rules
MVFR
Cloud Levels
  • Overcast at 2,900' AGL
Temperature
C / 45°F
Dewpoint
C / 34°F
Humidity
66%
Altimeter
30.02" Hg
Pressure
1016.62 hPa
Previous

2 hours ago

KUUU 180353Z AUTO 04013G19KT 10SM OVC030 07/01 A3005 RMK AO2 SLP175 T00670006
Observed
Nov-18 @ 03:53 UTC
Wind
  • 040° at 13 KTS
  • Gusting to 19 KTS
Visibility
10 SM
Flight Rules
MVFR
Cloud Levels
  • Overcast at 3,000' AGL
Temperature
C / 45°F
Dewpoint
C / 34°F
Humidity
66%
Altimeter
30.05" Hg
Pressure
1017.62 hPa
Previous

3 hours ago

KUUU 180253Z AUTO 03013KT 10SM OVC030 06/00 A3008 RMK AO2 SLP185 T00610000 56029
Observed
Nov-18 @ 02:53 UTC
Wind
  • 030° at 13 KTS
Visibility
10 SM
Flight Rules
MVFR
Cloud Levels
  • Overcast at 3,000' AGL
Temperature
C / 43°F
Dewpoint
C / 32°F
Humidity
66%
Altimeter
30.08" Hg
Pressure
1018.62 hPa